createdAt,value
2018-03-04T00:00:30.033Z,84.07
2018-03-04T00:02:56.181Z,84.22
2018-03-04T00:05:22.118Z,84.20
2018-03-04T00:07:51.484Z,84.17
2018-03-04T00:10:17.372Z,83.36
2018-03-04T00:12:44.077Z,82.97
2018-03-04T00:15:10.090Z,82.98
2018-03-04T00:17:38.617Z,82.95
2018-03-04T00:20:04.505Z,82.98
2018-03-04T00:22:40.592Z,83.57
2018-03-04T00:25:06.490Z,84.50
2018-03-04T00:27:32.392Z,85.43
2018-03-04T00:30:01.322Z,85.53
2018-03-04T00:32:27.225Z,85.09
2018-03-04T00:34:53.144Z,84.34
2018-03-04T00:37:19.021Z,83.92
2018-03-04T00:39:44.926Z,84.58
2018-03-04T00:42:10.824Z,84.76
2018-03-04T00:44:36.725Z,84.54
2018-03-04T00:47:02.623Z,83.98
2018-03-04T00:49:31.073Z,83.59
2018-03-04T00:51:56.949Z,83.19
2018-03-04T00:54:26.046Z,83.56
2018-03-04T00:56:51.928Z,83.56
2018-03-04T00:59:19.353Z,83.69
2018-03-04T01:01:45.265Z,83.99
2018-03-04T01:04:15.079Z,83.66
2018-03-04T01:06:40.998Z,83.68
2018-03-04T01:09:07.165Z,83.39
2018-03-04T01:11:33.085Z,83.16
2018-03-04T01:13:58.990Z,82.95
2018-03-04T01:16:25.441Z,83.20
2018-03-04T01:18:51.387Z,84.03
2018-03-04T01:21:20.120Z,84.24
2018-03-04T01:23:46.032Z,84.26
2018-03-04T01:26:15.112Z,83.98
2018-03-04T01:28:41.108Z,83.29
2018-03-04T01:31:10.534Z,83.14
2018-03-04T01:33:36.440Z,83.82
2018-03-04T01:36:06.001Z,84.10
2018-03-04T01:38:32.472Z,84.41
2018-03-04T01:40:58.903Z,84.41
2018-03-04T01:43:24.905Z,84.91
2018-03-04T01:45:50.843Z,85.09
2018-03-04T01:48:16.747Z,85.35
2018-03-04T01:50:42.627Z,85.33
2018-03-04T01:53:12.189Z,85.71
2018-03-04T01:55:38.213Z,85.76
2018-03-04T01:58:07.210Z,85.51
2018-03-04T02:00:33.108Z,85.20
2018-03-04T02:03:01.069Z,84.94
2018-03-04T02:05:26.973Z,85.93
2018-03-04T02:07:55.951Z,86.14
2018-03-04T02:10:21.889Z,86.64
2018-03-04T02:12:51.205Z,86.38
2018-03-04T02:15:17.116Z,85.95
2018-03-04T02:17:46.146Z,86.75
2018-03-04T02:20:12.021Z,86.87
2018-03-04T02:22:37.972Z,86.81
2018-03-04T02:25:03.868Z,86.67
2018-03-04T02:27:29.777Z,86.68
2018-03-04T02:29:56.548Z,86.55
2018-03-04T02:32:22.438Z,86.30
2018-03-04T02:34:52.061Z,85.86
2018-03-04T02:37:17.946Z,85.60
2018-03-04T02:39:47.013Z,86.02
2018-03-04T02:42:12.921Z,86.01
2018-03-04T02:44:40.669Z,86.14
2018-03-04T02:47:06.590Z,86.12
2018-03-04T02:49:36.497Z,85.79
2018-03-04T02:52:02.396Z,85.51
2018-03-04T02:54:30.129Z,85.92
2018-03-04T02:56:56.017Z,86.26
2018-03-04T02:59:21.929Z,86.04
2018-03-04T03:01:47.817Z,86.04
2018-03-04T03:04:13.764Z,86.17
2018-03-04T03:06:41.312Z,86.46
2018-03-04T03:09:07.413Z,86.74
2018-03-04T03:11:36.187Z,86.57
2018-03-04T03:14:02.109Z,86.90
2018-03-04T03:16:31.260Z,86.54
2018-03-04T03:18:57.186Z,86.58
2018-03-04T03:21:26.822Z,86.43
2018-03-04T03:23:52.720Z,86.23
2018-03-04T03:26:21.741Z,86.33
2018-03-04T03:28:47.637Z,86.88
2018-03-04T03:31:16.689Z,86.97
2018-03-04T03:33:42.624Z,86.41
2018-03-04T03:36:08.483Z,85.87
2018-03-04T03:38:34.387Z,86.33
2018-03-04T03:41:00.296Z,86.52
2018-03-04T03:43:26.954Z,86.21
2018-03-04T03:45:52.837Z,85.24
2018-03-04T03:48:21.748Z,84.98
2018-03-04T03:50:47.679Z,85.21
2018-03-04T03:53:16.606Z,85.54
2018-03-04T03:55:42.533Z,86.18
2018-03-04T03:58:12.313Z,86.71
2018-03-04T04:00:38.224Z,86.84
2018-03-04T04:03:05.916Z,87.01
2018-03-04T04:05:31.835Z,87.21
2018-03-04T04:08:00.746Z,87.38
2018-03-04T04:10:26.639Z,87.55
2018-03-04T04:12:52.519Z,86.80
2018-03-04T04:15:18.440Z,86.86
2018-03-04T04:17:44.340Z,87.49
2018-03-04T04:20:13.508Z,87.52
2018-03-04T04:22:39.396Z,87.14
2018-03-04T04:25:08.564Z,87.73
2018-03-04T04:27:34.459Z,87.79
2018-03-04T04:30:01.227Z,87.58
2018-03-04T04:32:27.139Z,87.39
2018-03-04T04:34:55.884Z,87.43
2018-03-04T04:37:21.771Z,87.32
2018-03-04T04:39:51.076Z,87.41
2018-03-04T04:42:16.974Z,88.55
2018-03-04T04:44:46.143Z,88.28
2018-03-04T04:47:12.045Z,87.66
2018-03-04T04:49:37.930Z,87.74
2018-03-04T04:52:03.835Z,88.05
2018-03-04T04:54:29.756Z,88.90
2018-03-04T04:56:57.220Z,89.35
2018-03-04T04:59:23.336Z,89.06
2018-03-04T05:01:51.941Z,88.86
2018-03-04T05:04:17.827Z,88.87
2018-03-04T05:06:47.416Z,88.07
2018-03-04T05:09:13.724Z,88.44
2018-03-04T05:11:41.401Z,88.02
2018-03-04T05:14:07.297Z,87.10
2018-03-04T05:16:36.187Z,86.28
2018-03-04T05:19:02.090Z,86.54
2018-03-04T05:21:31.078Z,86.58
2018-03-04T05:23:56.982Z,86.43
2018-03-04T05:26:22.863Z,86.86
2018-03-04T05:28:49.714Z,86.50
2018-03-04T05:31:15.589Z,85.97
2018-03-04T05:33:42.565Z,85.74
2018-03-04T05:36:08.484Z,86.61
2018-03-04T05:38:37.722Z,86.52
2018-03-04T05:41:03.605Z,86.38
2018-03-04T05:43:33.460Z,86.07
2018-03-04T05:45:59.351Z,86.51
2018-03-04T05:48:27.192Z,86.18
2018-03-04T05:50:53.122Z,86.14
2018-03-04T05:53:22.927Z,86.12
2018-03-04T05:55:48.820Z,86.30
2018-03-04T05:58:16.047Z,86.20
2018-03-04T06:00:41.947Z,85.89
2018-03-04T06:03:08.635Z,85.50
2018-03-04T06:05:34.539Z,84.49
2018-03-04T06:08:00.478Z,85.95
2018-03-04T06:10:28.229Z,85.83
2018-03-04T06:12:54.122Z,85.37
2018-03-04T06:15:23.907Z,85.86
2018-03-04T06:17:49.764Z,86.28
2018-03-04T06:20:18.811Z,85.91
2018-03-04T06:22:44.695Z,85.78
2018-03-04T06:25:13.772Z,84.82
2018-03-04T06:27:39.665Z,84.54
2018-03-04T06:30:08.550Z,84.99
2018-03-04T06:32:34.420Z,84.89
2018-03-04T06:35:01.116Z,84.88
2018-03-04T06:37:26.994Z,84.43
2018-03-04T06:39:52.839Z,84.38
2018-03-04T06:42:18.714Z,83.69
2018-03-04T06:44:44.582Z,83.41
2018-03-04T06:47:13.725Z,82.38
2018-03-04T06:49:39.611Z,81.87
2018-03-04T06:52:09.368Z,82.41
2018-03-04T06:54:35.228Z,82.85
2018-03-04T06:57:02.647Z,82.80
2018-03-04T06:59:28.493Z,82.17
2018-03-04T07:01:57.160Z,80.63
2018-03-04T07:04:23.107Z,78.24
2018-03-04T07:06:51.893Z,75.42
2018-03-04T07:09:17.762Z,72.66
2018-03-04T07:11:47.340Z,70.65
2018-03-04T07:14:13.193Z,69.05
2018-03-04T07:16:39.036Z,67.32
2018-03-04T07:19:04.897Z,64.15
2018-03-04T07:21:30.750Z,63.11
2018-03-04T07:23:58.727Z,60.84
2018-03-04T07:26:24.603Z,58.96
2018-03-04T07:28:53.090Z,55.58
2018-03-04T07:31:19.009Z,54.23
2018-03-04T07:36:15.625Z,55.30
2018-03-04T07:38:42.978Z,55.35
2018-03-04T07:41:08.884Z,51.69
2018-03-04T07:43:38.082Z,51.01
2018-03-04T07:46:03.948Z,49.35
2018-03-04T07:48:31.997Z,47.26
2018-03-04T07:50:57.882Z,46.04
2018-03-04T07:53:23.777Z,46.16
2018-03-04T07:55:49.661Z,45.47
2018-03-04T07:58:15.584Z,43.07
2018-03-04T08:00:45.175Z,42.40
2018-03-04T08:03:11.045Z,43.58
2018-03-04T08:05:40.041Z,44.75
2018-03-04T08:08:05.901Z,43.65
2018-03-04T08:10:34.868Z,43.62
2018-03-04T08:13:00.740Z,44.69
2018-03-04T08:15:29.726Z,43.98
2018-03-04T08:17:55.634Z,43.60
2018-03-04T08:20:22.337Z,43.03
2018-03-04T08:22:48.227Z,41.85
2018-03-04T08:25:26.310Z,45.31
2018-03-04T08:28:04.426Z,46.21
2018-03-04T08:30:30.342Z,49.26
2018-03-04T08:32:56.232Z,49.90
2018-03-04T08:35:22.127Z,49.04
2018-03-04T08:37:47.976Z,48.36
2018-03-04T08:40:13.822Z,47.99
2018-03-04T08:42:39.698Z,46.69
2018-03-04T08:45:05.620Z,45.20
2018-03-04T08:47:31.510Z,43.77
2018-03-04T08:49:57.365Z,44.38
2018-03-04T08:52:23.256Z,44.42
2018-03-04T08:54:49.150Z,42.38
2018-03-04T08:57:15.032Z,42.57
2018-03-04T08:59:40.912Z,43.31
2018-03-04T09:02:06.803Z,42.12
2018-03-04T09:04:32.667Z,42.71
2018-03-04T09:06:58.542Z,42.73
2018-03-04T09:09:24.446Z,43.07
2018-03-04T09:11:50.370Z,42.19
2018-03-04T09:14:16.256Z,42.18
2018-03-04T09:16:42.136Z,41.78
2018-03-04T09:19:08.725Z,41.61
2018-03-04T09:21:34.625Z,40.67
2018-03-04T09:24:03.267Z,41.37
2018-03-04T09:26:29.151Z,42.43
2018-03-04T09:31:26.021Z,42.31
2018-03-04T09:33:53.418Z,43.06
2018-03-04T09:36:19.314Z,43.89
2018-03-04T09:38:48.325Z,44.02
2018-03-04T09:41:14.159Z,44.64
2018-03-04T09:43:40.034Z,47.07
2018-03-04T09:46:05.932Z,45.57
2018-03-04T09:48:31.841Z,43.39
2018-03-04T09:51:01.275Z,43.33
2018-03-04T09:53:27.170Z,43.98
2018-03-04T09:55:54.962Z,43.46
2018-03-04T09:58:20.862Z,42.80
2018-03-04T10:00:50.659Z,43.26
2018-03-04T10:03:16.559Z,43.24
2018-03-04T10:05:43.734Z,43.49
2018-03-04T10:08:09.681Z,42.25
2018-03-04T10:10:38.296Z,42.56
2018-03-04T10:13:04.278Z,41.45
2018-03-04T10:15:33.096Z,42.58
2018-03-04T10:17:58.979Z,46.99
2018-03-04T10:20:24.851Z,48.18
2018-03-04T10:22:50.755Z,49.77
2018-03-04T10:25:16.661Z,49.25
2018-03-04T10:27:45.962Z,49.98
2018-03-04T10:30:11.856Z,50.05
2018-03-04T10:32:39.568Z,50.47
2018-03-04T10:35:05.462Z,49.79
2018-03-04T10:37:34.173Z,49.78
2018-03-04T10:40:00.050Z,48.79
2018-03-04T10:42:29.270Z,48.65
2018-03-04T10:44:55.194Z,46.86
2018-03-04T10:47:24.264Z,43.52
2018-03-04T10:49:50.187Z,42.00
2018-03-04T10:52:19.334Z,41.06
2018-03-04T10:54:45.226Z,39.74
2018-03-04T10:57:11.092Z,38.82
2018-03-04T10:59:37.013Z,38.71
2018-03-04T11:02:03.912Z,39.53
2018-03-04T11:04:31.080Z,40.43
2018-03-04T11:06:56.990Z,42.29
2018-03-04T11:09:25.945Z,42.32
2018-03-04T11:11:51.841Z,43.89
2018-03-04T11:14:19.661Z,42.07
2018-03-04T11:16:45.563Z,40.66
2018-03-04T11:19:15.896Z,38.80
2018-03-04T11:21:41.807Z,38.73
2018-03-04T11:24:09.610Z,39.27
2018-03-04T11:26:35.514Z,39.89
2018-03-04T11:29:05.280Z,38.50
2018-03-04T11:31:31.168Z,38.50
2018-03-04T11:33:57.081Z,40.42
2018-03-04T11:36:23.013Z,40.84
2018-03-04T11:38:48.919Z,38.01
2018-03-04T11:41:16.212Z,38.55
2018-03-04T11:43:42.132Z,38.79
2018-03-04T11:46:11.131Z,39.08
2018-03-04T11:48:37.027Z,40.25
2018-03-04T11:51:05.931Z,39.30
2018-03-04T11:53:31.850Z,39.14
2018-03-04T11:55:59.648Z,39.21
2018-03-04T11:58:25.669Z,39.32
2018-03-04T12:00:54.695Z,40.86
2018-03-04T12:03:20.558Z,40.33
2018-03-04T12:05:49.723Z,40.01
2018-03-04T12:08:15.610Z,39.34
2018-03-04T12:10:41.484Z,40.08
2018-03-04T12:13:08.180Z,41.28
2018-03-04T12:15:34.104Z,42.00
2018-03-04T12:18:00.724Z,42.72
2018-03-04T12:20:26.643Z,43.42
2018-03-04T12:22:56.365Z,44.45
2018-03-04T12:25:22.324Z,44.62
2018-03-04T12:27:50.203Z,44.84
2018-03-04T12:30:16.066Z,43.33
2018-03-04T12:32:44.562Z,42.36
2018-03-04T12:35:10.511Z,40.09
2018-03-04T12:37:39.542Z,40.98
2018-03-04T12:40:05.430Z,40.38
2018-03-04T12:42:34.229Z,41.29
2018-03-04T12:45:00.164Z,40.02
2018-03-04T12:47:26.232Z,39.04
2018-03-04T12:49:52.096Z,39.49
2018-03-04T12:52:17.968Z,38.06
2018-03-04T12:54:47.006Z,38.51
2018-03-04T12:57:12.926Z,38.63
2018-03-04T12:59:40.959Z,37.75
2018-03-04T13:02:06.835Z,37.59
2018-03-04T13:04:35.765Z,38.40
2018-03-04T13:07:01.741Z,39.39
2018-03-04T13:09:30.897Z,39.96
2018-03-04T13:11:56.795Z,40.41
2018-03-04T13:14:25.724Z,39.80
2018-03-04T13:16:51.653Z,39.21
2018-03-04T13:19:20.591Z,37.39
2018-03-04T13:21:46.445Z,37.96
2018-03-04T13:24:12.362Z,37.59
2018-03-04T13:26:38.236Z,37.81
2018-03-04T13:29:04.146Z,37.92
2018-03-04T13:31:31.642Z,37.74
2018-03-04T13:33:57.587Z,37.64
2018-03-04T13:36:26.367Z,37.38
2018-03-04T13:38:52.271Z,37.39
2018-03-04T13:41:21.591Z,34.11
2018-03-04T13:43:47.494Z,34.50
2018-03-04T13:46:16.384Z,32.71
2018-03-04T13:48:42.307Z,33.57
2018-03-04T13:51:11.323Z,34.49
2018-03-04T13:53:37.224Z,35.15
2018-03-04T13:56:04.876Z,35.06
2018-03-04T13:58:30.776Z,35.56
2018-03-04T14:00:56.668Z,35.69
2018-03-04T14:03:22.552Z,36.31
2018-03-04T14:05:48.423Z,36.64
2018-03-04T14:08:18.100Z,37.40
2018-03-04T14:10:44.003Z,37.73
2018-03-04T14:13:11.831Z,39.04
2018-03-04T14:15:37.743Z,38.16
2018-03-04T14:18:06.894Z,37.68
2018-03-04T14:20:32.783Z,38.89
2018-03-04T14:23:01.813Z,40.37
2018-03-04T14:25:27.739Z,40.26
2018-03-04T14:27:55.671Z,40.49
2018-03-04T14:30:21.581Z,40.78
2018-03-04T14:32:50.410Z,39.89
2018-03-04T14:35:16.291Z,39.26
2018-03-04T14:37:42.199Z,38.13
2018-03-04T14:40:08.083Z,38.39
2018-03-04T14:42:33.970Z,39.10
2018-03-04T14:45:03.582Z,39.65
2018-03-04T14:47:29.456Z,39.16
2018-03-04T14:49:58.586Z,39.13
2018-03-04T14:52:24.506Z,40.08
2018-03-04T14:54:52.203Z,39.61
2018-03-04T14:57:18.140Z,39.70
2018-03-04T14:59:47.121Z,39.16
2018-03-04T15:02:13.002Z,39.28
2018-03-04T15:04:41.987Z,38.86
2018-03-04T15:07:07.884Z,39.14
2018-03-04T15:09:35.678Z,38.79
2018-03-04T15:12:01.599Z,38.96
2018-03-04T15:14:34.360Z,39.27
2018-03-04T15:17:00.376Z,39.88
2018-03-04T15:19:26.273Z,39.51
2018-03-04T15:21:52.186Z,39.74
2018-03-04T15:24:18.089Z,39.93
2018-03-04T15:26:43.963Z,40.28
2018-03-04T15:29:09.879Z,41.89
2018-03-04T15:31:37.456Z,43.01
2018-03-04T15:34:03.350Z,42.85
2018-03-04T15:36:32.300Z,43.01
2018-03-04T15:38:58.215Z,43.63
2018-03-04T15:41:27.195Z,44.32
2018-03-04T15:43:53.103Z,44.89
2018-03-04T15:46:21.001Z,45.12
2018-03-04T15:48:46.876Z,45.29
2018-03-04T15:51:12.763Z,45.53
2018-03-04T15:53:38.657Z,45.33
2018-03-04T15:56:04.553Z,45.72
2018-03-04T15:58:34.265Z,45.51
2018-03-04T16:01:00.166Z,45.97
2018-03-04T16:03:28.093Z,45.98
2018-03-04T16:05:54.007Z,45.76
2018-03-04T16:08:22.129Z,46.12
2018-03-04T16:10:48.037Z,46.18
2018-03-04T16:13:16.829Z,46.53
2018-03-04T16:15:42.718Z,46.29
2018-03-04T16:18:13.033Z,46.72
2018-03-04T16:20:38.919Z,46.80
2018-03-04T16:23:08.039Z,47.04
2018-03-04T16:25:33.959Z,47.26
2018-03-04T16:27:59.824Z,47.43
2018-03-04T16:30:25.716Z,47.64
2018-03-04T16:32:51.620Z,47.84
2018-03-04T16:35:18.945Z,48.05
2018-03-04T16:37:44.814Z,48.05
2018-03-04T16:40:12.661Z,48.37
2018-03-04T16:42:38.594Z,48.85
2018-03-04T16:45:08.071Z,48.88
2018-03-04T16:47:33.972Z,48.33
2018-03-04T16:50:03.709Z,48.37
2018-03-04T16:52:29.609Z,48.29
2018-03-04T16:54:56.842Z,48.07
2018-03-04T16:57:22.744Z,47.31
2018-03-04T16:59:51.523Z,47.44
2018-03-04T17:02:17.427Z,47.08
2018-03-04T17:04:43.315Z,47.24
2018-03-04T17:07:09.215Z,47.24
2018-03-04T17:09:35.108Z,46.79
2018-03-04T17:12:04.664Z,47.25
2018-03-04T17:14:30.556Z,47.19
2018-03-04T17:16:59.650Z,46.87
2018-03-04T17:19:25.544Z,47.50
2018-03-04T17:21:53.392Z,47.94
2018-03-04T17:27:09.982Z,48.05
2018-03-04T17:29:35.846Z,48.47
2018-03-04T17:32:01.792Z,48.82
2018-03-04T17:34:27.657Z,48.85
2018-03-04T17:39:43.614Z,49.23
2018-03-04T17:42:09.554Z,49.34
2018-03-04T17:44:35.449Z,49.42
2018-03-04T17:47:01.373Z,49.12
2018-03-04T17:49:35.458Z,49.08
2018-03-04T17:52:01.340Z,48.95
2018-03-04T17:54:27.229Z,49.28
2018-03-04T17:56:53.154Z,49.35
2018-03-04T18:02:13.117Z,49.83
2018-03-04T18:04:39.037Z,49.65
2018-03-04T18:07:08.022Z,50.06
2018-03-04T18:09:33.887Z,49.98
2018-03-04T18:12:01.803Z,50.12
2018-03-04T18:14:27.697Z,49.99
2018-03-04T18:16:55.674Z,50.33
2018-03-04T18:19:21.560Z,50.56
2018-03-04T18:21:51.019Z,50.81
2018-03-04T18:24:16.937Z,50.74
2018-03-04T18:26:46.649Z,50.51
2018-03-04T18:29:12.548Z,50.42
2018-03-04T18:31:41.746Z,50.31
2018-03-04T18:34:07.649Z,50.51
2018-03-04T18:36:34.342Z,51.10
2018-03-04T18:39:00.264Z,51.88
2018-03-04T18:41:30.483Z,51.43
2018-03-04T18:43:56.450Z,50.87
2018-03-04T18:46:25.589Z,50.79
2018-03-04T18:48:51.512Z,51.18
2018-03-04T18:51:19.350Z,50.89
2018-03-04T18:53:45.261Z,50.32
2018-03-04T18:56:14.262Z,51.21
2018-03-04T18:58:40.188Z,51.90
2018-03-04T19:01:07.916Z,53.40
2018-03-04T19:03:33.813Z,53.91
2018-03-04T19:06:02.716Z,54.27
2018-03-04T19:08:28.605Z,55.14
2018-03-04T19:10:54.487Z,55.49
2018-03-04T19:13:20.383Z,55.82
2018-03-04T19:15:46.309Z,56.38
2018-03-04T19:18:15.296Z,56.60
2018-03-04T19:20:41.224Z,56.85
2018-03-04T19:23:11.034Z,56.86
2018-03-04T19:25:36.950Z,56.77
2018-03-04T19:28:03.983Z,56.73
2018-03-04T19:30:29.908Z,56.90
2018-03-04T19:32:59.143Z,56.73
2018-03-04T19:35:25.029Z,56.82
2018-03-04T19:37:53.983Z,57.31
2018-03-04T19:40:19.874Z,57.53
2018-03-04T19:42:48.028Z,57.18
2018-03-04T19:45:13.931Z,57.25
2018-03-04T19:47:39.851Z,57.47
2018-03-04T19:50:05.779Z,57.49
2018-03-04T19:52:31.663Z,57.17
2018-03-04T19:55:01.508Z,57.11
2018-03-04T19:57:27.392Z,57.44
2018-03-04T19:59:56.445Z,58.07
2018-03-04T20:02:22.311Z,58.20
2018-03-04T20:04:49.405Z,58.86
2018-03-04T20:07:15.292Z,58.89
2018-03-04T20:09:44.163Z,58.97
2018-03-04T20:12:10.081Z,59.02
2018-03-04T20:14:39.989Z,59.26
2018-03-04T20:17:05.892Z,59.04
2018-03-04T20:19:34.910Z,58.92
2018-03-04T20:22:00.784Z,58.73
2018-03-04T20:24:26.692Z,58.72
2018-03-04T20:26:52.604Z,58.61
2018-03-04T20:29:18.483Z,58.54
2018-03-04T20:31:45.245Z,58.48
2018-03-04T20:34:11.132Z,58.55
2018-03-04T20:36:39.696Z,58.56
2018-03-04T20:39:05.622Z,59.09
2018-03-04T20:41:34.396Z,59.25
2018-03-04T20:44:00.307Z,58.97
2018-03-04T20:46:29.102Z,59.16
2018-03-04T20:48:54.970Z,58.90
2018-03-04T20:51:23.615Z,58.60
2018-03-04T20:53:49.533Z,58.30
2018-03-04T20:56:18.743Z,58.13
2018-03-04T20:58:44.663Z,57.88
2018-03-04T21:01:10.575Z,57.31
2018-03-04T21:03:36.484Z,56.90
2018-03-04T21:06:02.406Z,57.17
2018-03-04T21:08:32.246Z,57.41
2018-03-04T21:10:58.163Z,57.86
2018-03-04T21:13:24.885Z,58.10
2018-03-04T21:15:50.807Z,57.56
2018-03-04T21:18:19.573Z,58.26
2018-03-04T21:20:45.490Z,58.30
2018-03-04T21:23:14.393Z,57.85
2018-03-04T21:25:40.300Z,57.58
2018-03-04T21:28:09.322Z,57.96
2018-03-04T21:30:35.224Z,57.97
2018-03-04T21:33:04.246Z,57.84
2018-03-04T21:35:30.165Z,57.85
2018-03-04T21:37:56.082Z,57.95
2018-03-04T21:40:21.992Z,58.01
2018-03-04T21:42:47.919Z,58.30
2018-03-04T21:45:17.636Z,58.54
2018-03-04T21:47:43.540Z,58.17
2018-03-04T21:50:11.387Z,58.43
2018-03-04T21:52:37.303Z,58.57
2018-03-04T21:55:05.127Z,58.81
2018-03-04T21:57:31.030Z,58.83
2018-03-04T21:59:59.719Z,58.94
2018-03-04T22:02:25.576Z,58.83
2018-03-04T22:04:54.223Z,58.88
2018-03-04T22:07:20.139Z,58.88
2018-03-04T22:09:49.205Z,58.67
2018-03-04T22:12:15.133Z,58.99
2018-03-04T22:14:41.085Z,59.72
2018-03-04T22:17:06.997Z,60.35
2018-03-04T22:19:32.863Z,60.23
2018-03-04T22:22:04.784Z,60.41
2018-03-04T22:24:30.703Z,60.13
2018-03-04T22:26:56.603Z,60.22
2018-03-04T22:29:22.814Z,60.97
2018-03-04T22:31:50.482Z,61.17
2018-03-04T22:34:16.368Z,61.59
2018-03-04T22:36:45.816Z,62.07
2018-03-04T22:39:11.722Z,62.93
2018-03-04T22:41:39.839Z,63.46
2018-03-04T22:44:05.749Z,64.13
2018-03-04T22:46:34.611Z,64.46
2018-03-04T22:49:00.505Z,65.74
2018-03-04T22:51:26.407Z,67.02
2018-03-04T22:53:52.349Z,67.45
2018-03-04T22:56:18.271Z,67.54
2018-03-04T22:58:48.133Z,68.84
2018-03-04T23:01:14.031Z,69.15
2018-03-04T23:03:41.050Z,69.53
2018-03-04T23:06:07.002Z,69.55
2018-03-04T23:08:36.042Z,70.14
2018-03-04T23:11:01.924Z,70.14
2018-03-04T23:13:31.082Z,70.00
2018-03-04T23:15:56.986Z,69.95
2018-03-04T23:18:27.185Z,69.78
2018-03-04T23:20:53.055Z,69.51
2018-03-04T23:23:19.964Z,69.90
2018-03-04T23:25:45.869Z,70.03
2018-03-04T23:28:11.761Z,70.12
2018-03-04T23:30:37.659Z,70.25
2018-03-04T23:33:03.610Z,70.59
2018-03-04T23:35:33.093Z,70.83
2018-03-04T23:37:59.013Z,70.96
2018-03-04T23:40:28.009Z,71.06
2018-03-04T23:42:53.892Z,70.68
2018-03-04T23:45:21.759Z,70.40
2018-03-04T23:47:47.686Z,70.50
2018-03-04T23:50:17.607Z,70.51
2018-03-04T23:52:43.483Z,70.81
2018-03-04T23:55:10.402Z,70.89
2018-03-04T23:57:36.338Z,70.68
